Terminal Aerodrome Forecast
Issued by NWS

Home | Current Version | Previous Version | Text Only | Print | Product List | Glossary On
Versions: 1 2 3 4 5 6 7 8 9 10 11 12 13 14 15 16 17 18 19
000
FTUS43 KGRR 301311 AAA
TAFBTL
TAF AMD
KBTL 301311Z 3013/3112 20004KT 1/4SM FG VV002
     FM301400 22004KT 2SM BR OVC009
     FM301600 25006KT P6SM BKN018
     FM302300 25008KT P6SM SKC
     FM310600 VRB03KT 4SM BR SKC
     FM311100 VRB03KT 2SM BR SKC=

USA.gov is the U.S. government's official web portal to all federal, state and local government web resources and services.